PWSweather.com
Personal Weather Stations
Station Observations
PICKERING
North Yorkshire, PickeringGB

North YorkshirePickeringGB

Lat: 54.2494, Lon: -0.7725

Elevation: 192

Station Type: Oregon Scientific WMR100

http://www.yorkshirewalker.co.uk/weather/

High Low Average
Temperature 45.7°F7.6°C 32.9°F0.5°C 38.9°F3.8°C
Dew Point 39.2°F4.0°C 26.6°F-3.0°C 32.4°F0.2°C
Winds 4.6 mph 7.4 kmh Calm Calm 1.0 mph SW1.6 kmh SW
Wind Gusts 7.8 mph12.6 kmh -- 3.0 mph4.8 kmh
Humidity 82% 70% 76%
Pressure 29.92 in1013.2 mb 29.59 in1002.0 mb -
Precipitation 0.00 in0.0 mm - -
Hour Temp Dew Point Humidity Winds Wind Gusts Pressure Precip Precip Rate Daily Precip Total
12:00 AM 40.3°F4.6°C 32.0°F0.0°C 70% 2.2 mph WNW3.5 kmh WNW 4.0 mph6.4 kmh 29.59 in1002.0 mb 0.00 in0.0 mm 0.00 in0.0 mm 0.00 in0.0 mm
12:05 AM 40.5°F4.7°C 32.0°F0.0°C 70% 2.7 mph W4.3 kmh W 4.3 mph6.9 kmh 29.62 in1003.0 mb 0.00 in0.0 mm 0.00 in0.0 mm 0.00 in0.0 mm
12:10 AM 40.3°F4.6°C 32.0°F0.0°C 70% 3.0 mph W4.8 kmh W 4.3 mph6.9 kmh 29.62 in1003.0 mb 0.00 in0.0 mm 0.00 in0.0 mm 0.00 in0.0 mm
12:15 AM 40.1°F4.5°C 32.0°F0.0°C 70% 2.9 mph W4.7 kmh W 4.0 mph6.4 kmh 29.62 in1003.0 mb 0.00 in0.0 mm 0.00 in0.0 mm 0.00 in0.0 mm
12:20 AM 40.1°F4.5°C 32.0°F0.0°C 70% 3.2 mph W5.1 kmh W 4.9 mph7.9 kmh 29.62 in1003.0 mb 0.00 in0.0 mm 0.00 in0.0 mm 0.00 in0.0 mm
12:25 AM 40.1°F4.5°C 32.0°F0.0°C 70% 3.0 mph W4.8 kmh W 4.9 mph7.9 kmh 29.62 in1003.0 mb 0.00 in0.0 mm 0.00 in0.0 mm 0.00 in0.0 mm
12:30 AM 39.9°F4.4°C 32.0°F0.0°C 71% 2.7 mph W4.3 kmh W 4.9 mph7.9 kmh 29.62 in1003.0 mb 0.00 in0.0 mm 0.00 in0.0 mm 0.00 in0.0 mm
12:35 AM 39.9°F4.4°C 32.0°F0.0°C 71% 2.6 mph W4.2 kmh W 4.0 mph6.4 kmh 29.62 in1003.0 mb 0.00 in0.0 mm 0.00 in0.0 mm 0.00 in0.0 mm
12:40 AM 39.9°F4.4°C 32.0°F0.0°C 71% 3.0 mph WSW4.8 kmh WSW 4.0 mph6.4 kmh 29.62 in1003.0 mb 0.00 in0.0 mm 0.00 in0.0 mm 0.00 in0.0 mm
12:45 AM 39.7°F4.3°C 32.0°F0.0°C 71% 3.1 mph W5.0 kmh W 4.3 mph6.9 kmh 29.62 in1003.0 mb 0.00 in0.0 mm 0.00 in0.0 mm 0.00 in0.0 mm
12:50 AM 39.7°F4.3°C 32.0°F0.0°C 71% 3.1 mph W5.0 kmh W 6.5 mph10.5 kmh 29.62 in1003.0 mb 0.00 in0.0 mm 0.00 in0.0 mm 0.00 in0.0 mm
12:55 AM 39.6°F4.2°C 32.0°F0.0°C 71% 3.2 mph W5.1 kmh W 6.5 mph10.5 kmh 29.62 in1003.0 mb 0.00 in0.0 mm 0.00 in0.0 mm 0.00 in0.0 mm
01:00 AM 39.2°F4.0°C 32.0°F0.0°C 72% 2.7 mph W4.3 kmh W 6.5 mph10.5 kmh 29.62 in1003.0 mb 0.00 in0.0 mm 0.00 in0.0 mm 0.00 in0.0 mm
01:05 AM 39.2°F4.0°C 32.0°F0.0°C 72% 2.4 mph W3.9 kmh W 3.1 mph5.0 kmh 29.65 in1004.1 mb 0.00 in0.0 mm 0.00 in0.0 mm 0.00 in0.0 mm
01:10 AM 39.2°F4.0°C 32.0°F0.0°C 72% 2.0 mph W3.2 kmh W 3.1 mph5.0 kmh 29.65 in1004.1 mb 0.00 in0.0 mm 0.00 in0.0 mm 0.00 in0.0 mm
01:15 AM 38.8°F3.8°C 30.2°F-1.0°C 72% 1.9 mph WNW3.1 kmh WNW 3.1 mph5.0 kmh 29.65 in1004.1 mb 0.00 in0.0 mm 0.00 in0.0 mm 0.00 in0.0 mm
01:20 AM 38.8°F3.8°C 30.2°F-1.0°C 72% 2.2 mph WNW3.5 kmh WNW 3.1 mph5.0 kmh 29.65 in1004.1 mb 0.00 in0.0 mm 0.00 in0.0 mm 0.00 in0.0 mm
01:25 AM 38.8°F3.8°C 30.2°F-1.0°C 72% 3.4 mph W5.5 kmh W 7.2 mph11.6 kmh 29.65 in1004.1 mb 0.00 in0.0 mm 0.00 in0.0 mm 0.00 in0.0 mm
01:30 AM 38.8°F3.8°C 30.2°F-1.0°C 73% 3.7 mph W6.0 kmh W 7.2 mph11.6 kmh 29.65 in1004.1 mb 0.00 in0.0 mm 0.00 in0.0 mm 0.00 in0.0 mm
01:35 AM 38.8°F3.8°C 30.2°F-1.0°C 73% 3.3 mph W5.3 kmh W 4.7 mph7.6 kmh 29.65 in1004.1 mb 0.00 in0.0 mm 0.00 in0.0 mm 0.00 in0.0 mm
01:40 AM 39.0°F3.9°C 32.0°F0.0°C 73% 3.8 mph WNW6.1 kmh WNW 5.8 mph9.3 kmh 29.65 in1004.1 mb 0.00 in0.0 mm 0.00 in0.0 mm 0.00 in0.0 mm
01:45 AM 39.0°F3.9°C 32.0°F0.0°C 73% 3.9 mph WNW6.3 kmh WNW 6.0 mph9.7 kmh 29.65 in1004.1 mb 0.00 in0.0 mm 0.00 in0.0 mm 0.00 in0.0 mm
01:50 AM 38.8°F3.8°C 30.2°F-1.0°C 73% 3.7 mph WNW6.0 kmh WNW 6.0 mph9.7 kmh 29.65 in1004.1 mb 0.00 in0.0 mm 0.00 in0.0 mm 0.00 in0.0 mm
01:55 AM 39.0°F3.9°C 32.0°F0.0°C 73% 4.1 mph WNW6.6 kmh WNW 5.8 mph9.3 kmh 29.65 in1004.1 mb 0.00 in0.0 mm 0.00 in0.0 mm 0.00 in0.0 mm
02:00 AM 39.0°F3.9°C 32.0°F0.0°C 73% 4.6 mph W7.4 kmh W 6.0 mph9.7 kmh 29.65 in1004.1 mb 0.00 in0.0 mm 0.00 in0.0 mm 0.00 in0.0 mm
02:05 AM 39.0°F3.9°C 32.0°F0.0°C 73% 3.8 mph W6.1 kmh W 6.0 mph9.7 kmh 29.68 in1005.1 mb 0.00 in0.0 mm 0.00 in0.0 mm 0.00 in0.0 mm
02:10 AM 38.8°F3.8°C 30.2°F-1.0°C 73% 3.4 mph WNW5.5 kmh WNW 5.6 mph9.0 kmh 29.68 in1005.1 mb 0.00 in0.0 mm 0.00 in0.0 mm 0.00 in0.0 mm
02:15 AM 39.0°F3.9°C 32.0°F0.0°C 73% 3.9 mph W6.3 kmh W 5.6 mph9.0 kmh 29.68 in1005.1 mb 0.00 in0.0 mm 0.00 in0.0 mm 0.00 in0.0 mm
02:20 AM 39.0°F3.9°C 32.0°F0.0°C 73% 4.4 mph WNW7.1 kmh WNW 7.4 mph11.9 kmh 29.68 in1005.1 mb 0.00 in0.0 mm 0.00 in0.0 mm 0.00 in0.0 mm
02:25 AM 38.7°F3.7°C 30.2°F-1.0°C 73% 3.9 mph NW6.3 kmh NW 7.4 mph11.9 kmh 29.68 in1005.1 mb 0.00 in0.0 mm 0.00 in0.0 mm 0.00 in0.0 mm
02:30 AM 38.8°F3.8°C 30.2°F-1.0°C 73% 2.9 mph NW4.7 kmh NW 5.4 mph8.7 kmh 29.68 in1005.1 mb 0.00 in0.0 mm 0.00 in0.0 mm 0.00 in0.0 mm
02:35 AM 38.8°F3.8°C 30.2°F-1.0°C 73% 3.1 mph NW5.0 kmh NW 4.9 mph7.9 kmh 29.68 in1005.1 mb 0.00 in0.0 mm 0.00 in0.0 mm 0.00 in0.0 mm
02:40 AM 38.8°F3.8°C 30.2°F-1.0°C 73% 3.2 mph WNW5.1 kmh WNW 5.8 mph9.3 kmh 29.68 in1005.1 mb 0.00 in0.0 mm 0.00 in0.0 mm 0.00 in0.0 mm
02:45 AM 38.8°F3.8°C 30.2°F-1.0°C 73% 3.6 mph NW5.8 kmh NW 5.8 mph9.3 kmh 29.68 in1005.1 mb 0.00 in0.0 mm 0.00 in0.0 mm 0.00 in0.0 mm
02:50 AM 39.2°F4.0°C 32.0°F0.0°C 73% 3.6 mph NW5.8 kmh NW 5.8 mph9.3 kmh 29.68 in1005.1 mb 0.00 in0.0 mm 0.00 in0.0 mm 0.00 in0.0 mm
02:55 AM 39.2°F4.0°C 32.0°F0.0°C 73% 3.6 mph NW5.8 kmh NW 4.9 mph7.9 kmh 29.68 in1005.1 mb 0.00 in0.0 mm 0.00 in0.0 mm 0.00 in0.0 mm
03:00 AM 39.2°F4.0°C 32.0°F0.0°C 73% 3.4 mph WNW5.5 kmh WNW 4.9 mph7.9 kmh 29.68 in1005.1 mb 0.00 in0.0 mm 0.00 in0.0 mm 0.00 in0.0 mm
03:05 AM 39.2°F4.0°C 32.0°F0.0°C 73% 3.3 mph WNW5.3 kmh WNW 7.4 mph11.9 kmh 29.71 in1006.1 mb 0.00 in0.0 mm 0.00 in0.0 mm 0.00 in0.0 mm
03:10 AM 39.2°F4.0°C 32.0°F0.0°C 73% 3.2 mph NW5.1 kmh NW 7.4 mph11.9 kmh 29.71 in1006.1 mb 0.00 in0.0 mm 0.00 in0.0 mm 0.00 in0.0 mm
03:15 AM 39.2°F4.0°C 32.0°F0.0°C 73% 2.8 mph NW4.5 kmh NW 3.8 mph6.1 kmh 29.71 in1006.1 mb 0.00 in0.0 mm 0.00 in0.0 mm 0.00 in0.0 mm
03:20 AM 39.2°F4.0°C 32.0°F0.0°C 73% 2.9 mph WNW4.7 kmh WNW 4.0 mph6.4 kmh 29.71 in1006.1 mb 0.00 in0.0 mm 0.00 in0.0 mm 0.00 in0.0 mm
03:25 AM 39.2°F4.0°C 32.0°F0.0°C 73% 3.3 mph NW5.3 kmh NW 6.0 mph9.7 kmh 29.71 in1006.1 mb 0.00 in0.0 mm 0.00 in0.0 mm 0.00 in0.0 mm
03:30 AM 39.2°F4.0°C 32.0°F0.0°C 73% 3.6 mph NW5.8 kmh NW 6.0 mph9.7 kmh 29.71 in1006.1 mb 0.00 in0.0 mm 0.00 in0.0 mm 0.00 in0.0 mm
03:35 AM 39.2°F4.0°C 32.0°F0.0°C 73% 3.3 mph WNW5.3 kmh WNW 6.0 mph9.7 kmh 29.71 in1006.1 mb 0.00 in0.0 mm 0.00 in0.0 mm 0.00 in0.0 mm
03:40 AM 39.0°F3.9°C 32.0°F0.0°C 73% 3.2 mph WNW5.1 kmh WNW 5.4 mph8.7 kmh 29.71 in1006.1 mb 0.00 in0.0 mm 0.00 in0.0 mm 0.00 in0.0 mm
03:45 AM 39.0°F3.9°C 32.0°F0.0°C 73% 3.7 mph NW6.0 kmh NW 6.7 mph10.8 kmh 29.71 in1006.1 mb 0.00 in0.0 mm 0.00 in0.0 mm 0.00 in0.0 mm
03:50 AM 38.8°F3.8°C 30.2°F-1.0°C 73% 3.6 mph NW5.8 kmh NW 6.7 mph10.8 kmh 29.71 in1006.1 mb 0.00 in0.0 mm 0.00 in0.0 mm 0.00 in0.0 mm
03:55 AM 38.8°F3.8°C 30.2°F-1.0°C 73% 3.7 mph NW6.0 kmh NW 5.6 mph9.0 kmh 29.71 in1006.1 mb 0.00 in0.0 mm 0.00 in0.0 mm 0.00 in0.0 mm
04:00 AM 38.8°F3.8°C 30.2°F-1.0°C 73% 4.0 mph NW6.4 kmh NW 6.5 mph10.5 kmh 29.71 in1006.1 mb 0.00 in0.0 mm 0.00 in0.0 mm 0.00 in0.0 mm
04:05 AM 38.8°F3.8°C 30.2°F-1.0°C 73% 4.0 mph NW6.4 kmh NW 6.5 mph10.5 kmh 29.71 in1006.1 mb 0.00 in0.0 mm 0.00 in0.0 mm 0.00 in0.0 mm
04:10 AM 38.7°F3.7°C 32.0°F0.0°C 74% 3.6 mph NW5.8 kmh NW 6.7 mph10.8 kmh 29.71 in1006.1 mb 0.00 in0.0 mm 0.00 in0.0 mm 0.00 in0.0 mm
04:15 AM 38.7°F3.7°C 32.0°F0.0°C 74% 2.9 mph NW4.7 kmh NW 6.7 mph10.8 kmh 29.71 in1006.1 mb 0.00 in0.0 mm 0.00 in0.0 mm 0.00 in0.0 mm
04:20 AM 39.0°F3.9°C 32.0°F0.0°C 74% 3.0 mph NW4.8 kmh NW 6.3 mph10.1 kmh 29.74 in1007.1 mb 0.00 in0.0 mm 0.00 in0.0 mm 0.00 in0.0 mm
04:25 AM 39.2°F4.0°C 32.0°F0.0°C 73% 3.4 mph NW5.5 kmh NW 4.7 mph7.6 kmh 29.74 in1007.1 mb 0.00 in0.0 mm 0.00 in0.0 mm 0.00 in0.0 mm
04:30 AM 39.4°F4.1°C 32.0°F0.0°C 73% 2.9 mph NW4.7 kmh NW 4.7 mph7.6 kmh 29.74 in1007.1 mb 0.00 in0.0 mm 0.00 in0.0 mm 0.00 in0.0 mm
04:35 AM 39.2°F4.0°C 32.0°F0.0°C 73% 2.5 mph NW4.0 kmh NW 3.6 mph5.8 kmh 29.74 in1007.1 mb 0.00 in0.0 mm 0.00 in0.0 mm 0.00 in0.0 mm
04:40 AM 38.8°F3.8°C 32.0°F0.0°C 74% 2.7 mph WNW4.3 kmh WNW 4.3 mph6.9 kmh 29.74 in1007.1 mb 0.00 in0.0 mm 0.00 in0.0 mm 0.00 in0.0 mm
04:45 AM 38.8°F3.8°C 32.0°F0.0°C 74% 3.1 mph WNW5.0 kmh WNW 6.0 mph9.7 kmh 29.74 in1007.1 mb 0.00 in0.0 mm 0.00 in0.0 mm 0.00 in0.0 mm
04:50 AM 38.8°F3.8°C 32.0°F0.0°C 74% 3.4 mph NW5.5 kmh NW 6.0 mph9.7 kmh 29.74 in1007.1 mb 0.00 in0.0 mm 0.00 in0.0 mm 0.00 in0.0 mm
04:55 AM 38.8°F3.8°C 32.0°F0.0°C 74% 3.6 mph NW5.8 kmh NW 6.0 mph9.7 kmh 29.74 in1007.1 mb 0.00 in0.0 mm 0.00 in0.0 mm 0.00 in0.0 mm
05:00 AM 38.8°F3.8°C 32.0°F0.0°C 74% 3.6 mph NW5.8 kmh NW 5.8 mph9.3 kmh 29.74 in1007.1 mb 0.00 in0.0 mm 0.00 in0.0 mm 0.00 in0.0 mm
05:05 AM 38.8°F3.8°C 32.0°F0.0°C 74% 4.0 mph NNW6.4 kmh NNW 7.8 mph12.6 kmh 29.77 in1008.1 mb 0.00 in0.0 mm 0.00 in0.0 mm 0.00 in0.0 mm
05:10 AM 38.8°F3.8°C 32.0°F0.0°C 74% 4.0 mph NW6.4 kmh NW 7.8 mph12.6 kmh 29.77 in1008.1 mb 0.00 in0.0 mm 0.00 in0.0 mm 0.00 in0.0 mm
05:15 AM 39.0°F3.9°C 32.0°F0.0°C 74% 2.8 mph NW4.5 kmh NW 5.6 mph9.0 kmh 29.77 in1008.1 mb 0.00 in0.0 mm 0.00 in0.0 mm 0.00 in0.0 mm
05:20 AM 39.0°F3.9°C 32.0°F0.0°C 74% 2.6 mph NW4.2 kmh NW 3.8 mph6.1 kmh 29.77 in1008.1 mb 0.00 in0.0 mm 0.00 in0.0 mm 0.00 in0.0 mm
05:25 AM 39.0°F3.9°C 32.0°F0.0°C 74% 2.4 mph NW3.9 kmh NW 4.3 mph6.9 kmh 29.77 in1008.1 mb 0.00 in0.0 mm 0.00 in0.0 mm 0.00 in0.0 mm
05:30 AM 39.2°F4.0°C 32.0°F0.0°C 74% 2.5 mph NW4.0 kmh NW 5.6 mph9.0 kmh 29.77 in1008.1 mb 0.00 in0.0 mm 0.00 in0.0 mm 0.00 in0.0 mm
05:35 AM 39.2°F4.0°C 32.0°F0.0°C 74% 3.1 mph NW5.0 kmh NW 7.8 mph12.6 kmh 29.77 in1008.1 mb 0.00 in0.0 mm 0.00 in0.0 mm 0.00 in0.0 mm
05:40 AM 39.2°F4.0°C 32.0°F0.0°C 74% 3.0 mph NW4.8 kmh NW 7.8 mph12.6 kmh 29.77 in1008.1 mb 0.00 in0.0 mm 0.00 in0.0 mm 0.00 in0.0 mm
05:45 AM 39.0°F3.9°C 32.0°F0.0°C 75% 2.8 mph NW4.5 kmh NW 4.7 mph7.6 kmh 29.77 in1008.1 mb 0.00 in0.0 mm 0.00 in0.0 mm 0.00 in0.0 mm
05:50 AM 38.8°F3.8°C 32.0°F0.0°C 75% 2.1 mph NW3.4 kmh NW 4.7 mph7.6 kmh 29.77 in1008.1 mb 0.00 in0.0 mm 0.00 in0.0 mm 0.00 in0.0 mm
05:55 AM 39.0°F3.9°C 32.0°F0.0°C 75% 2.4 mph NW3.9 kmh NW 5.4 mph8.7 kmh 29.77 in1008.1 mb 0.00 in0.0 mm 0.00 in0.0 mm 0.00 in0.0 mm
06:00 AM 39.2°F4.0°C 32.0°F0.0°C 75% 2.5 mph NW4.0 kmh NW 5.4 mph8.7 kmh 29.77 in1008.1 mb 0.00 in0.0 mm 0.00 in0.0 mm 0.00 in0.0 mm
06:05 AM 39.0°F3.9°C 32.0°F0.0°C 75% 2.1 mph NW3.4 kmh NW 4.0 mph6.4 kmh 29.77 in1008.1 mb 0.00 in0.0 mm 0.00 in0.0 mm 0.00 in0.0 mm
06:10 AM 39.0°F3.9°C 32.0°F0.0°C 75% 2.7 mph NW4.3 kmh NW 5.6 mph9.0 kmh 29.77 in1008.1 mb 0.00 in0.0 mm 0.00 in0.0 mm 0.00 in0.0 mm
06:15 AM 39.0°F3.9°C 32.0°F0.0°C 76% 2.9 mph NW4.7 kmh NW 5.6 mph9.0 kmh 29.77 in1008.1 mb 0.00 in0.0 mm 0.00 in0.0 mm 0.00 in0.0 mm
06:20 AM 39.4°F4.1°C 32.0°F0.0°C 76% 2.3 mph NW3.7 kmh NW 4.7 mph7.6 kmh 29.80 in1009.1 mb 0.00 in0.0 mm 0.00 in0.0 mm 0.00 in0.0 mm
06:25 AM 39.4°F4.1°C 32.0°F0.0°C 76% 1.9 mph NW3.1 kmh NW 3.6 mph5.8 kmh 29.80 in1009.1 mb 0.00 in0.0 mm 0.00 in0.0 mm 0.00 in0.0 mm
06:30 AM 39.6°F4.2°C 33.8°F1.0°C 76% 2.7 mph NW4.3 kmh NW 5.8 mph9.3 kmh 29.80 in1009.1 mb 0.00 in0.0 mm 0.00 in0.0 mm 0.00 in0.0 mm
06:35 AM 39.7°F4.3°C 33.8°F1.0°C 76% 3.6 mph NW5.8 kmh NW 5.8 mph9.3 kmh 29.80 in1009.1 mb 0.00 in0.0 mm 0.00 in0.0 mm 0.00 in0.0 mm
06:40 AM 39.6°F4.2°C 33.8°F1.0°C 76% 3.0 mph NW4.8 kmh NW 5.8 mph9.3 kmh 29.80 in1009.1 mb 0.00 in0.0 mm 0.00 in0.0 mm 0.00 in0.0 mm
06:45 AM 39.4°F4.1°C 33.8°F1.0°C 77% 2.7 mph NW4.3 kmh NW 4.0 mph6.4 kmh 29.80 in1009.1 mb 0.00 in0.0 mm 0.00 in0.0 mm 0.00 in0.0 mm
06:50 AM 39.4°F4.1°C 33.8°F1.0°C 77% 2.2 mph NNW3.5 kmh NNW 4.0 mph6.4 kmh 29.80 in1009.1 mb 0.00 in0.0 mm 0.00 in0.0 mm 0.00 in0.0 mm
06:55 AM 39.4°F4.1°C 33.8°F1.0°C 77% 1.7 mph N2.7 kmh N 3.8 mph6.1 kmh 29.80 in1009.1 mb 0.00 in0.0 mm 0.00 in0.0 mm 0.00 in0.0 mm
07:00 AM 39.0°F3.9°C 33.8°F1.0°C 77% 1.4 mph NW2.3 kmh NW 3.8 mph6.1 kmh 29.80 in1009.1 mb 0.00 in0.0 mm 0.00 in0.0 mm 0.00 in0.0 mm
07:05 AM 38.8°F3.8°C 32.0°F0.0°C 77% 0.6 mph NW1.0 kmh NW 2.0 mph3.2 kmh 29.80 in1009.1 mb 0.00 in0.0 mm 0.00 in0.0 mm 0.00 in0.0 mm
07:10 AM 38.8°F3.8°C 32.0°F0.0°C 78% 0.2 mph WNW0.3 kmh WNW 0.9 mph1.4 kmh 29.80 in1009.1 mb 0.00 in0.0 mm 0.00 in0.0 mm 0.00 in0.0 mm
07:15 AM 38.8°F3.8°C 32.0°F0.0°C 78% 0.5 mph NW0.8 kmh NW 1.6 mph2.6 kmh 29.80 in1009.1 mb 0.00 in0.0 mm 0.00 in0.0 mm 0.00 in0.0 mm
07:20 AM 38.8°F3.8°C 32.0°F0.0°C 78% 1.2 mph NW1.9 kmh NW 3.1 mph5.0 kmh 29.80 in1009.1 mb 0.00 in0.0 mm 0.00 in0.0 mm 0.00 in0.0 mm
07:25 AM 38.7°F3.7°C 32.0°F0.0°C 78% 1.5 mph NNW2.4 kmh NNW 3.1 mph5.0 kmh 29.80 in1009.1 mb 0.00 in0.0 mm 0.00 in0.0 mm 0.00 in0.0 mm
07:30 AM 38.7°F3.7°C 32.0°F0.0°C 78% 1.4 mph NW2.3 kmh NW 3.1 mph5.0 kmh 29.80 in1009.1 mb 0.00 in0.0 mm 0.00 in0.0 mm 0.00 in0.0 mm
07:35 AM 38.7°F3.7°C 32.0°F0.0°C 78% 1.1 mph NW1.8 kmh NW 2.9 mph4.7 kmh 29.80 in1009.1 mb 0.00 in0.0 mm 0.00 in0.0 mm 0.00 in0.0 mm
07:40 AM 38.5°F3.6°C 32.0°F0.0°C 78% 0.8 mph NNW1.3 kmh NNW 2.0 mph3.2 kmh 29.80 in1009.1 mb 0.00 in0.0 mm 0.00 in0.0 mm 0.00 in0.0 mm
07:45 AM 38.5°F3.6°C 32.0°F0.0°C 78% 0.7 mph NW1.1 kmh NW 2.7 mph4.3 kmh 29.80 in1009.1 mb 0.00 in0.0 mm 0.00 in0.0 mm 0.00 in0.0 mm
07:50 AM 38.7°F3.7°C 32.0°F0.0°C 78% 0.6 mph NW1.0 kmh NW 2.7 mph4.3 kmh 29.80 in1009.1 mb 0.00 in0.0 mm 0.00 in0.0 mm 0.00 in0.0 mm
07:55 AM 38.7°F3.7°C 32.0°F0.0°C 78% 0.9 mph NW1.4 kmh NW 2.7 mph4.3 kmh 29.80 in1009.1 mb 0.00 in0.0 mm 0.00 in0.0 mm 0.00 in0.0 mm
08:00 AM 38.7°F3.7°C 32.0°F0.0°C 78% 0.4 mph WNW0.6 kmh WNW 2.0 mph3.2 kmh 29.80 in1009.1 mb 0.00 in0.0 mm 0.00 in0.0 mm 0.00 in0.0 mm
08:05 AM 38.1°F3.4°C 32.0°F0.0°C 78% Calm Calm -- 29.83 in1010.2 mb 0.00 in0.0 mm 0.00 in0.0 mm 0.00 in0.0 mm
08:10 AM 37.8°F3.2°C 32.0°F0.0°C 78% Calm Calm -- 29.83 in1010.2 mb 0.00 in0.0 mm 0.00 in0.0 mm 0.00 in0.0 mm
08:15 AM 37.6°F3.1°C 32.0°F0.0°C 78% Calm Calm -- 29.83 in1010.2 mb 0.00 in0.0 mm 0.00 in0.0 mm 0.00 in0.0 mm
08:20 AM 37.4°F3.0°C 32.0°F0.0°C 78% 0.3 mph WNW0.5 kmh WNW 1.3 mph2.1 kmh 29.83 in1010.2 mb 0.00 in0.0 mm 0.00 in0.0 mm 0.00 in0.0 mm
08:25 AM 37.4°F3.0°C 32.0°F0.0°C 78% 0.3 mph WNW0.5 kmh WNW 1.3 mph2.1 kmh 29.83 in1010.2 mb 0.00 in0.0 mm 0.00 in0.0 mm 0.00 in0.0 mm
08:30 AM 37.0°F2.8°C 32.0°F0.0°C 78% Calm Calm -- 29.83 in1010.2 mb 0.00 in0.0 mm 0.00 in0.0 mm 0.00 in0.0 mm
08:35 AM 36.9°F2.7°C 30.2°F-1.0°C 78% 0.2 mph W0.3 kmh W 1.1 mph1.8 kmh 29.83 in1010.2 mb 0.00 in0.0 mm 0.00 in0.0 mm 0.00 in0.0 mm
08:40 AM 36.7°F2.6°C 30.2°F-1.0°C 78% 0.2 mph W0.3 kmh W 1.1 mph1.8 kmh 29.83 in1010.2 mb 0.00 in0.0 mm 0.00 in0.0 mm 0.00 in0.0 mm
08:45 AM 36.7°F2.6°C 32.0°F0.0°C 79% Calm Calm -- 29.83 in1010.2 mb 0.00 in0.0 mm 0.00 in0.0 mm 0.00 in0.0 mm
08:50 AM 36.5°F2.5°C 32.0°F0.0°C 79% 0.1 mph NW0.2 kmh NW 0.9 mph1.4 kmh 29.86 in1011.2 mb 0.00 in0.0 mm 0.00 in0.0 mm 0.00 in0.0 mm
08:55 AM 36.7°F2.6°C 32.0°F0.0°C 79% 0.2 mph NW0.3 kmh NW 0.9 mph1.4 kmh 29.86 in1011.2 mb 0.00 in0.0 mm 0.00 in0.0 mm 0.00 in0.0 mm
09:00 AM 37.0°F2.8°C 32.0°F0.0°C 79% 0.1 mph N0.2 kmh N 0.9 mph1.4 kmh 29.86 in1011.2 mb 0.00 in0.0 mm 0.00 in0.0 mm 0.00 in0.0 mm
09:05 AM 37.2°F2.9°C 32.0°F0.0°C 79% Calm Calm -- 29.86 in1011.2 mb 0.00 in0.0 mm 0.00 in0.0 mm 0.00 in0.0 mm
09:10 AM 37.2°F2.9°C 32.0°F0.0°C 79% 0.4 mph WSW0.6 kmh WSW 1.6 mph2.6 kmh 29.86 in1011.2 mb 0.00 in0.0 mm 0.00 in0.0 mm 0.00 in0.0 mm
09:15 AM 37.6°F3.1°C 32.0°F0.0°C 79% 0.7 mph WSW1.1 kmh WSW 1.6 mph2.6 kmh 29.86 in1011.2 mb 0.00 in0.0 mm 0.00 in0.0 mm 0.00 in0.0 mm
09:20 AM 37.8°F3.2°C 32.0°F0.0°C 79% 0.3 mph WSW0.5 kmh WSW 1.6 mph2.6 kmh 29.86 in1011.2 mb 0.00 in0.0 mm 0.00 in0.0 mm 0.00 in0.0 mm
09:25 AM 38.1°F3.4°C 32.0°F0.0°C 79% 0.2 mph NNW0.3 kmh NNW 2.0 mph3.2 kmh 29.86 in1011.2 mb 0.00 in0.0 mm 0.00 in0.0 mm 0.00 in0.0 mm
09:30 AM 38.1°F3.4°C 32.0°F0.0°C 79% 0.4 mph NNW0.6 kmh NNW 2.0 mph3.2 kmh 29.86 in1011.2 mb 0.00 in0.0 mm 0.00 in0.0 mm 0.00 in0.0 mm
09:35 AM 38.1°F3.4°C 32.0°F0.0°C 79% 0.5 mph NW0.8 kmh NW 2.0 mph3.2 kmh 29.86 in1011.2 mb 0.00 in0.0 mm 0.00 in0.0 mm 0.00 in0.0 mm
09:40 AM 38.3°F3.5°C 33.8°F1.0°C 80% 0.1 mph NW0.2 kmh NW 1.6 mph2.6 kmh 29.86 in1011.2 mb 0.00 in0.0 mm 0.00 in0.0 mm 0.00 in0.0 mm
09:45 AM 38.3°F3.5°C 33.8°F1.0°C 80% 0.2 mph NNW0.3 kmh NNW 0.9 mph1.4 kmh 29.86 in1011.2 mb 0.00 in0.0 mm 0.00 in0.0 mm 0.00 in0.0 mm
09:50 AM 38.8°F3.8°C 33.8°F1.0°C 80% 0.7 mph N1.1 kmh N 2.5 mph4.0 kmh 29.86 in1011.2 mb 0.00 in0.0 mm 0.00 in0.0 mm 0.00 in0.0 mm
09:55 AM 39.4°F4.1°C 33.8°F1.0°C 80% 1.6 mph NNW2.6 kmh NNW 3.6 mph5.8 kmh 29.86 in1011.2 mb 0.00 in0.0 mm 0.00 in0.0 mm 0.00 in0.0 mm
10:00 AM 39.7°F4.3°C 33.8°F1.0°C 79% 2.1 mph NW3.4 kmh NW 3.6 mph5.8 kmh 29.86 in1011.2 mb 0.00 in0.0 mm 0.00 in0.0 mm 0.00 in0.0 mm
10:05 AM 39.9°F4.4°C 33.8°F1.0°C 79% 2.4 mph NW3.9 kmh NW 4.3 mph6.9 kmh 29.86 in1011.2 mb 0.00 in0.0 mm 0.00 in0.0 mm 0.00 in0.0 mm
10:10 AM 40.1°F4.5°C 33.8°F1.0°C 79% 2.6 mph NNW4.2 kmh NNW 4.3 mph6.9 kmh 29.86 in1011.2 mb 0.00 in0.0 mm 0.00 in0.0 mm 0.00 in0.0 mm
10:15 AM 40.3°F4.6°C 33.8°F1.0°C 79% 2.9 mph NNW4.7 kmh NNW 6.3 mph10.1 kmh 29.86 in1011.2 mb 0.00 in0.0 mm 0.00 in0.0 mm 0.00 in0.0 mm
10:20 AM 40.3°F4.6°C 33.8°F1.0°C 79% 2.9 mph N4.7 kmh N 6.3 mph10.1 kmh 29.86 in1011.2 mb 0.00 in0.0 mm 0.00 in0.0 mm 0.00 in0.0 mm
10:25 AM 40.3°F4.6°C 33.8°F1.0°C 78% 2.6 mph NNE4.2 kmh NNE 4.0 mph6.4 kmh 29.86 in1011.2 mb 0.00 in0.0 mm 0.00 in0.0 mm 0.00 in0.0 mm
10:30 AM 40.6°F4.8°C 33.8°F1.0°C 78% 3.4 mph N5.5 kmh N 5.4 mph8.7 kmh 29.86 in1011.2 mb 0.00 in0.0 mm 0.00 in0.0 mm 0.00 in0.0 mm
10:35 AM 40.6°F4.8°C 33.8°F1.0°C 78% 3.1 mph N5.0 kmh N 5.4 mph8.7 kmh 29.89 in1012.2 mb 0.00 in0.0 mm 0.00 in0.0 mm 0.00 in0.0 mm
10:40 AM 41.0°F5.0°C 35.6°F2.0°C 78% 2.1 mph NNW3.4 kmh NNW 3.8 mph6.1 kmh 29.89 in1012.2 mb 0.00 in0.0 mm 0.00 in0.0 mm 0.00 in0.0 mm
10:45 AM 41.0°F5.0°C 35.6°F2.0°C 78% 2.0 mph NNW3.2 kmh NNW 3.8 mph6.1 kmh 29.89 in1012.2 mb 0.00 in0.0 mm 0.00 in0.0 mm 0.00 in0.0 mm
10:50 AM 41.2°F5.1°C 35.6°F2.0°C 78% 1.2 mph NW1.9 kmh NW 3.4 mph5.5 kmh 29.89 in1012.2 mb 0.00 in0.0 mm 0.00 in0.0 mm 0.00 in0.0 mm
10:55 AM 41.2°F5.1°C 35.6°F2.0°C 78% 0.9 mph N1.4 kmh N 2.5 mph4.0 kmh 29.89 in1012.2 mb 0.00 in0.0 mm 0.00 in0.0 mm 0.00 in0.0 mm
11:00 AM 41.2°F5.1°C 35.6°F2.0°C 78% 1.2 mph NNW1.9 kmh NNW 2.5 mph4.0 kmh 29.89 in1012.2 mb 0.00 in0.0 mm 0.00 in0.0 mm 0.00 in0.0 mm
11:05 AM 41.4°F5.2°C 35.6°F2.0°C 78% 1.0 mph NW1.6 kmh NW 2.2 mph3.5 kmh 29.89 in1012.2 mb 0.00 in0.0 mm 0.00 in0.0 mm 0.00 in0.0 mm
11:10 AM 41.4°F5.2°C 35.6°F2.0°C 78% 1.2 mph NW1.9 kmh NW 2.9 mph4.7 kmh 29.89 in1012.2 mb 0.00 in0.0 mm 0.00 in0.0 mm 0.00 in0.0 mm
11:15 AM 41.4°F5.2°C 35.6°F2.0°C 78% 1.0 mph NW1.6 kmh NW 2.9 mph4.7 kmh 29.89 in1012.2 mb 0.00 in0.0 mm 0.00 in0.0 mm 0.00 in0.0 mm
11:20 AM 41.4°F5.2°C 35.6°F2.0°C 78% 0.7 mph W1.1 kmh W 1.3 mph2.1 kmh 29.89 in1012.2 mb 0.00 in0.0 mm 0.00 in0.0 mm 0.00 in0.0 mm
11:25 AM 41.4°F5.2°C 35.6°F2.0°C 78% 1.3 mph W2.1 kmh W 2.7 mph4.3 kmh 29.89 in1012.2 mb 0.00 in0.0 mm 0.00 in0.0 mm 0.00 in0.0 mm
11:30 AM 41.4°F5.2°C 35.6°F2.0°C 78% 1.2 mph WNW1.9 kmh WNW 2.7 mph4.3 kmh 29.89 in1012.2 mb 0.00 in0.0 mm 0.00 in0.0 mm 0.00 in0.0 mm
11:35 AM 41.4°F5.2°C 35.6°F2.0°C 78% 0.8 mph NW1.3 kmh NW 2.0 mph3.2 kmh 29.89 in1012.2 mb 0.00 in0.0 mm 0.00 in0.0 mm 0.00 in0.0 mm
11:40 AM 41.4°F5.2°C 35.6°F2.0°C 78% 0.5 mph NW0.8 kmh NW 1.6 mph2.6 kmh 29.89 in1012.2 mb 0.00 in0.0 mm 0.00 in0.0 mm 0.00 in0.0 mm
11:45 AM 42.1°F5.6°C 35.6°F2.0°C 78% 0.3 mph WSW0.5 kmh WSW 2.2 mph3.5 kmh 29.89 in1012.2 mb 0.00 in0.0 mm 0.00 in0.0 mm 0.00 in0.0 mm
11:50 AM 42.6°F5.9°C 37.4°F3.0°C 77% 0.7 mph WSW1.1 kmh WSW 2.2 mph3.5 kmh 29.89 in1012.2 mb 0.00 in0.0 mm 0.00 in0.0 mm 0.00 in0.0 mm
11:55 AM 44.6°F7.0°C 37.4°F3.0°C 77% 0.9 mph WSW1.4 kmh WSW 2.5 mph4.0 kmh 29.89 in1012.2 mb 0.00 in0.0 mm 0.00 in0.0 mm 0.00 in0.0 mm
12:00 PM 45.3°F7.4°C 37.4°F3.0°C 75% 1.3 mph WSW2.1 kmh WSW 2.9 mph4.7 kmh 29.89 in1012.2 mb 0.00 in0.0 mm 0.00 in0.0 mm 0.00 in0.0 mm
12:05 PM 45.7°F7.6°C 39.2°F4.0°C 75% 1.9 mph WNW3.1 kmh WNW 3.6 mph5.8 kmh 29.89 in1012.2 mb 0.00 in0.0 mm 0.00 in0.0 mm 0.00 in0.0 mm
12:10 PM 45.5°F7.5°C 37.4°F3.0°C 74% 2.0 mph NNW3.2 kmh NNW 3.6 mph5.8 kmh 29.89 in1012.2 mb 0.00 in0.0 mm 0.00 in0.0 mm 0.00 in0.0 mm
12:15 PM 44.6°F7.0°C 37.4°F3.0°C 73% 2.5 mph NW4.0 kmh NW 4.0 mph6.4 kmh 29.89 in1012.2 mb 0.00 in0.0 mm 0.00 in0.0 mm 0.00 in0.0 mm
12:20 PM 44.1°F6.7°C 35.6°F2.0°C 73% 2.6 mph WNW4.2 kmh WNW 4.0 mph6.4 kmh 29.89 in1012.2 mb 0.00 in0.0 mm 0.00 in0.0 mm 0.00 in0.0 mm
12:25 PM 43.7°F6.5°C 35.6°F2.0°C 73% 2.7 mph W4.3 kmh W 3.8 mph6.1 kmh 29.89 in1012.2 mb 0.00 in0.0 mm 0.00 in0.0 mm 0.00 in0.0 mm
12:30 PM 43.5°F6.4°C 35.6°F2.0°C 73% 2.9 mph WNW4.7 kmh WNW 4.0 mph6.4 kmh 29.89 in1012.2 mb 0.00 in0.0 mm 0.00 in0.0 mm 0.00 in0.0 mm
12:35 PM 43.7°F6.5°C 35.6°F2.0°C 73% 2.5 mph WNW4.0 kmh WNW 4.0 mph6.4 kmh 29.89 in1012.2 mb 0.00 in0.0 mm 0.00 in0.0 mm 0.00 in0.0 mm
12:40 PM 44.1°F6.7°C 35.6°F2.0°C 72% 2.4 mph WNW3.9 kmh WNW 3.4 mph5.5 kmh 29.89 in1012.2 mb 0.00 in0.0 mm 0.00 in0.0 mm 0.00 in0.0 mm
12:45 PM 44.2°F6.8°C 35.6°F2.0°C 72% 2.5 mph W4.0 kmh W 3.4 mph5.5 kmh 29.89 in1012.2 mb 0.00 in0.0 mm 0.00 in0.0 mm 0.00 in0.0 mm
12:50 PM 44.8°F7.1°C 37.4°F3.0°C 72% 1.9 mph W3.1 kmh W 3.1 mph5.0 kmh 29.89 in1012.2 mb 0.00 in0.0 mm 0.00 in0.0 mm 0.00 in0.0 mm
12:55 PM 45.0°F7.2°C 37.4°F3.0°C 71% 2.3 mph NW3.7 kmh NW 4.3 mph6.9 kmh 29.89 in1012.2 mb 0.00 in0.0 mm 0.00 in0.0 mm 0.00 in0.0 mm
01:00 PM 44.8°F7.1°C 35.6°F2.0°C 71% 2.4 mph NW3.9 kmh NW 4.3 mph6.9 kmh 29.89 in1012.2 mb 0.00 in0.0 mm 0.00 in0.0 mm 0.00 in0.0 mm
01:05 PM 44.6°F7.0°C 35.6°F2.0°C 71% 2.4 mph NW3.9 kmh NW 4.3 mph6.9 kmh 29.89 in1012.2 mb 0.00 in0.0 mm 0.00 in0.0 mm 0.00 in0.0 mm
01:10 PM 43.7°F6.5°C 35.6°F2.0°C 71% 2.9 mph NW4.7 kmh NW 5.8 mph9.3 kmh 29.89 in1012.2 mb 0.00 in0.0 mm 0.00 in0.0 mm 0.00 in0.0 mm
01:15 PM 43.0°F6.1°C 33.8°F1.0°C 71% 2.4 mph NW3.9 kmh NW 5.8 mph9.3 kmh 29.89 in1012.2 mb 0.00 in0.0 mm 0.00 in0.0 mm 0.00 in0.0 mm
01:20 PM 42.8°F6.0°C 35.6°F2.0°C 72% 2.0 mph NW3.2 kmh NW 4.0 mph6.4 kmh 29.92 in1013.2 mb 0.00 in0.0 mm 0.00 in0.0 mm 0.00 in0.0 mm
01:25 PM 43.3°F6.3°C 35.6°F2.0°C 72% 1.2 mph NW1.9 kmh NW 4.0 mph6.4 kmh 29.92 in1013.2 mb 0.00 in0.0 mm 0.00 in0.0 mm 0.00 in0.0 mm
01:30 PM 44.2°F6.8°C 35.6°F2.0°C 72% 1.2 mph N1.9 kmh N 3.4 mph5.5 kmh 29.92 in1013.2 mb 0.00 in0.0 mm 0.00 in0.0 mm 0.00 in0.0 mm
01:35 PM 44.1°F6.7°C 35.6°F2.0°C 71% 2.2 mph NNW3.5 kmh NNW 3.4 mph5.5 kmh 29.89 in1012.2 mb 0.00 in0.0 mm 0.00 in0.0 mm 0.00 in0.0 mm
01:40 PM 43.5°F6.4°C 35.6°F2.0°C 71% 3.1 mph NW5.0 kmh NW 5.6 mph9.0 kmh 29.89 in1012.2 mb 0.00 in0.0 mm 0.00 in0.0 mm 0.00 in0.0 mm
01:45 PM 43.0°F6.1°C 33.8°F1.0°C 71% 2.6 mph NW4.2 kmh NW 5.6 mph9.0 kmh 29.89 in1012.2 mb 0.00 in0.0 mm 0.00 in0.0 mm 0.00 in0.0 mm
01:50 PM 42.8°F6.0°C 35.6°F2.0°C 72% 2.0 mph NW3.2 kmh NW 4.3 mph6.9 kmh 29.89 in1012.2 mb 0.00 in0.0 mm 0.00 in0.0 mm 0.00 in0.0 mm
01:55 PM 42.4°F5.8°C 35.6°F2.0°C 72% 2.0 mph NW3.2 kmh NW 4.3 mph6.9 kmh 29.89 in1012.2 mb 0.00 in0.0 mm 0.00 in0.0 mm 0.00 in0.0 mm
02:00 PM 42.3°F5.7°C 33.8°F1.0°C 72% 1.7 mph NNW2.7 kmh NNW 2.9 mph4.7 kmh 29.89 in1012.2 mb 0.00 in0.0 mm 0.00 in0.0 mm 0.00 in0.0 mm
02:05 PM 42.3°F5.7°C 33.8°F1.0°C 72% 1.6 mph N2.6 kmh N 2.7 mph4.3 kmh 29.89 in1012.2 mb 0.00 in0.0 mm 0.00 in0.0 mm 0.00 in0.0 mm
02:10 PM 42.1°F5.6°C 33.8°F1.0°C 72% 1.4 mph NNE2.3 kmh NNE 2.7 mph4.3 kmh 29.89 in1012.2 mb 0.00 in0.0 mm 0.00 in0.0 mm 0.00 in0.0 mm
02:15 PM 42.1°F5.6°C 33.8°F1.0°C 72% 1.0 mph NNW1.6 kmh NNW 2.5 mph4.0 kmh 29.89 in1012.2 mb 0.00 in0.0 mm 0.00 in0.0 mm 0.00 in0.0 mm
02:20 PM 41.9°F5.5°C 33.8°F1.0°C 72% 0.6 mph NNW1.0 kmh NNW 2.0 mph3.2 kmh 29.89 in1012.2 mb 0.00 in0.0 mm 0.00 in0.0 mm 0.00 in0.0 mm
02:25 PM 42.1°F5.6°C 33.8°F1.0°C 72% 0.4 mph N0.6 kmh N 1.1 mph1.8 kmh 29.89 in1012.2 mb 0.00 in0.0 mm 0.00 in0.0 mm 0.00 in0.0 mm
02:30 PM 41.9°F5.5°C 33.8°F1.0°C 72% 0.1 mph N0.2 kmh N 1.1 mph1.8 kmh 29.89 in1012.2 mb 0.00 in0.0 mm 0.00 in0.0 mm 0.00 in0.0 mm
02:35 PM 41.9°F5.5°C 33.8°F1.0°C 72% Calm Calm -- 29.89 in1012.2 mb 0.00 in0.0 mm 0.00 in0.0 mm 0.00 in0.0 mm
02:40 PM 41.9°F5.5°C 33.8°F1.0°C 73% 0.1 mph W0.2 kmh W 1.1 mph1.8 kmh 29.89 in1012.2 mb 0.00 in0.0 mm 0.00 in0.0 mm 0.00 in0.0 mm
02:45 PM 41.9°F5.5°C 33.8°F1.0°C 73% 0.4 mph WSW0.6 kmh WSW 1.1 mph1.8 kmh 29.89 in1012.2 mb 0.00 in0.0 mm 0.00 in0.0 mm 0.00 in0.0 mm
02:50 PM 41.9°F5.5°C 33.8°F1.0°C 73% 0.6 mph WSW1.0 kmh WSW 1.6 mph2.6 kmh 29.89 in1012.2 mb 0.00 in0.0 mm 0.00 in0.0 mm 0.00 in0.0 mm
02:55 PM 41.5°F5.3°C 33.8°F1.0°C 73% 0.7 mph WSW1.1 kmh WSW 1.6 mph2.6 kmh 29.89 in1012.2 mb 0.00 in0.0 mm 0.00 in0.0 mm 0.00 in0.0 mm
03:00 PM 41.4°F5.2°C 33.8°F1.0°C 73% 0.6 mph WSW1.0 kmh WSW 1.6 mph2.6 kmh 29.89 in1012.2 mb 0.00 in0.0 mm 0.00 in0.0 mm 0.00 in0.0 mm
03:05 PM 41.0°F5.0°C 33.8°F1.0°C 73% 0.1 mph WSW0.2 kmh WSW 1.1 mph1.8 kmh 29.89 in1012.2 mb 0.00 in0.0 mm 0.00 in0.0 mm 0.00 in0.0 mm
03:10 PM 41.0°F5.0°C 33.8°F1.0°C 73% 0.1 mph WSW0.2 kmh WSW 0.9 mph1.4 kmh 29.89 in1012.2 mb 0.00 in0.0 mm 0.00 in0.0 mm 0.00 in0.0 mm
03:15 PM 40.8°F4.9°C 33.8°F1.0°C 73% 0.1 mph WSW0.2 kmh WSW 0.9 mph1.4 kmh 29.89 in1012.2 mb 0.00 in0.0 mm 0.00 in0.0 mm 0.00 in0.0 mm
03:20 PM 40.6°F4.8°C 33.8°F1.0°C 74% Calm Calm -- 29.89 in1012.2 mb 0.00 in0.0 mm 0.00 in0.0 mm 0.00 in0.0 mm
03:25 PM 40.6°F4.8°C 33.8°F1.0°C 74% Calm Calm -- 29.89 in1012.2 mb 0.00 in0.0 mm 0.00 in0.0 mm 0.00 in0.0 mm
03:30 PM 40.5°F4.7°C 33.8°F1.0°C 74% Calm Calm -- 29.89 in1012.2 mb 0.00 in0.0 mm 0.00 in0.0 mm 0.00 in0.0 mm
03:35 PM 40.5°F4.7°C 33.8°F1.0°C 74% 0.1 mph WSW0.2 kmh WSW 0.9 mph1.4 kmh 29.89 in1012.2 mb 0.00 in0.0 mm 0.00 in0.0 mm 0.00 in0.0 mm
03:40 PM 40.3°F4.6°C 33.8°F1.0°C 74% 0.3 mph WSW0.5 kmh WSW 1.3 mph2.1 kmh 29.89 in1012.2 mb 0.00 in0.0 mm 0.00 in0.0 mm 0.00 in0.0 mm
03:45 PM 39.9°F4.4°C 32.0°F0.0°C 74% 0.2 mph WSW0.3 kmh WSW 1.3 mph2.1 kmh 29.89 in1012.2 mb 0.00 in0.0 mm 0.00 in0.0 mm 0.00 in0.0 mm
03:50 PM 39.7°F4.3°C 32.0°F0.0°C 74% 0.1 mph SW0.2 kmh SW 0.9 mph1.4 kmh 29.89 in1012.2 mb 0.00 in0.0 mm 0.00 in0.0 mm 0.00 in0.0 mm
03:55 PM 39.6°F4.2°C 32.0°F0.0°C 74% 0.1 mph SW0.2 kmh SW 0.9 mph1.4 kmh 29.89 in1012.2 mb 0.00 in0.0 mm 0.00 in0.0 mm 0.00 in0.0 mm
04:00 PM 39.2°F4.0°C 32.0°F0.0°C 75% Calm Calm -- 29.89 in1012.2 mb 0.00 in0.0 mm 0.00 in0.0 mm 0.00 in0.0 mm
04:05 PM 39.0°F3.9°C 32.0°F0.0°C 75% Calm Calm -- 29.89 in1012.2 mb 0.00 in0.0 mm 0.00 in0.0 mm 0.00 in0.0 mm
04:10 PM 39.0°F3.9°C 32.0°F0.0°C 75% Calm Calm -- 29.89 in1012.2 mb 0.00 in0.0 mm 0.00 in0.0 mm 0.00 in0.0 mm
04:15 PM 38.7°F3.7°C 32.0°F0.0°C 75% Calm Calm -- 29.89 in1012.2 mb 0.00 in0.0 mm 0.00 in0.0 mm 0.00 in0.0 mm
04:20 PM 38.5°F3.6°C 32.0°F0.0°C 75% Calm Calm -- 29.89 in1012.2 mb 0.00 in0.0 mm 0.00 in0.0 mm 0.00 in0.0 mm
04:25 PM 38.3°F3.5°C 32.0°F0.0°C 75% Calm Calm -- 29.89 in1012.2 mb 0.00 in0.0 mm 0.00 in0.0 mm 0.00 in0.0 mm
04:30 PM 37.9°F3.3°C 32.0°F0.0°C 75% Calm Calm -- 29.89 in1012.2 mb 0.00 in0.0 mm 0.00 in0.0 mm 0.00 in0.0 mm
04:35 PM 37.8°F3.2°C 32.0°F0.0°C 75% 0.2 mph SW0.3 kmh SW 1.1 mph1.8 kmh 29.89 in1012.2 mb 0.00 in0.0 mm 0.00 in0.0 mm 0.00 in0.0 mm
04:40 PM 37.6°F3.1°C 30.2°F-1.0°C 75% 0.2 mph SW0.3 kmh SW 1.1 mph1.8 kmh 29.89 in1012.2 mb 0.00 in0.0 mm 0.00 in0.0 mm 0.00 in0.0 mm
04:45 PM 37.4°F3.0°C 30.2°F-1.0°C 75% 0.1 mph SW0.2 kmh SW 0.9 mph1.4 kmh 29.89 in1012.2 mb 0.00 in0.0 mm 0.00 in0.0 mm 0.00 in0.0 mm
04:50 PM 37.0°F2.8°C 30.2°F-1.0°C 75% Calm Calm -- 29.89 in1012.2 mb 0.00 in0.0 mm 0.00 in0.0 mm 0.00 in0.0 mm
04:55 PM 36.9°F2.7°C 30.2°F-1.0°C 76% Calm Calm -- 29.89 in1012.2 mb 0.00 in0.0 mm 0.00 in0.0 mm 0.00 in0.0 mm
05:00 PM 36.5°F2.5°C 30.2°F-1.0°C 76% Calm Calm -- 29.89 in1012.2 mb 0.00 in0.0 mm 0.00 in0.0 mm 0.00 in0.0 mm
05:05 PM 36.5°F2.5°C 30.2°F-1.0°C 76% Calm Calm -- 29.89 in1012.2 mb 0.00 in0.0 mm 0.00 in0.0 mm 0.00 in0.0 mm
05:10 PM 36.1°F2.3°C 30.2°F-1.0°C 76% 0.2 mph E0.3 kmh E 1.3 mph2.1 kmh 29.89 in1012.2 mb 0.00 in0.0 mm 0.00 in0.0 mm 0.00 in0.0 mm
05:15 PM 35.8°F2.1°C 30.2°F-1.0°C 76% 0.2 mph E0.3 kmh E 1.3 mph2.1 kmh 29.89 in1012.2 mb 0.00 in0.0 mm 0.00 in0.0 mm 0.00 in0.0 mm
05:20 PM 35.6°F2.0°C 30.2°F-1.0°C 76% 0.1 mph NE0.2 kmh NE 1.3 mph2.1 kmh 29.89 in1012.2 mb 0.00 in0.0 mm 0.00 in0.0 mm 0.00 in0.0 mm
05:25 PM 35.4°F1.9°C 28.4°F-2.0°C 76% 0.1 mph NE0.2 kmh NE 1.3 mph2.1 kmh 29.89 in1012.2 mb 0.00 in0.0 mm 0.00 in0.0 mm 0.00 in0.0 mm
05:30 PM 35.2°F1.8°C 28.4°F-2.0°C 76% Calm Calm -- 29.89 in1012.2 mb 0.00 in0.0 mm 0.00 in0.0 mm 0.00 in0.0 mm
05:35 PM 35.1°F1.7°C 28.4°F-2.0°C 76% Calm Calm -- 29.89 in1012.2 mb 0.00 in0.0 mm 0.00 in0.0 mm 0.00 in0.0 mm
05:40 PM 34.9°F1.6°C 28.4°F-2.0°C 76% Calm Calm -- 29.89 in1012.2 mb 0.00 in0.0 mm 0.00 in0.0 mm 0.00 in0.0 mm
05:45 PM 35.1°F1.7°C 28.4°F-2.0°C 77% Calm Calm -- 29.89 in1012.2 mb 0.00 in0.0 mm 0.00 in0.0 mm 0.00 in0.0 mm
05:50 PM 34.9°F1.6°C 28.4°F-2.0°C 77% Calm Calm -- 29.89 in1012.2 mb 0.00 in0.0 mm 0.00 in0.0 mm 0.00 in0.0 mm
05:55 PM 34.5°F1.4°C 28.4°F-2.0°C 77% Calm Calm -- 29.89 in1012.2 mb 0.00 in0.0 mm 0.00 in0.0 mm 0.00 in0.0 mm
06:00 PM 34.2°F1.2°C 28.4°F-2.0°C 77% 0.1 mph SSW0.2 kmh SSW 0.9 mph1.4 kmh 29.89 in1012.2 mb 0.00 in0.0 mm 0.00 in0.0 mm 0.00 in0.0 mm
06:05 PM 34.0°F1.1°C 28.4°F-2.0°C 77% 0.1 mph SSW0.2 kmh SSW 0.9 mph1.4 kmh 29.89 in1012.2 mb 0.00 in0.0 mm 0.00 in0.0 mm 0.00 in0.0 mm
06:10 PM 33.8°F1.0°C 28.4°F-2.0°C 77% Calm Calm -- 29.89 in1012.2 mb 0.00 in0.0 mm 0.00 in0.0 mm 0.00 in0.0 mm
06:15 PM 34.2°F1.2°C 28.4°F-2.0°C 77% Calm Calm -- 29.89 in1012.2 mb 0.00 in0.0 mm 0.00 in0.0 mm 0.00 in0.0 mm
06:20 PM 34.2°F1.2°C 28.4°F-2.0°C 78% Calm Calm -- 29.89 in1012.2 mb 0.00 in0.0 mm 0.00 in0.0 mm 0.00 in0.0 mm
06:25 PM 34.5°F1.4°C 28.4°F-2.0°C 78% Calm Calm -- 29.89 in1012.2 mb 0.00 in0.0 mm 0.00 in0.0 mm 0.00 in0.0 mm
06:30 PM 34.0°F1.1°C 28.4°F-2.0°C 78% Calm Calm -- 29.89 in1012.2 mb 0.00 in0.0 mm 0.00 in0.0 mm 0.00 in0.0 mm
06:35 PM 33.6°F0.9°C 28.4°F-2.0°C 78% Calm Calm -- 29.89 in1012.2 mb 0.00 in0.0 mm 0.00 in0.0 mm 0.00 in0.0 mm
06:40 PM 33.3°F0.7°C 26.6°F-3.0°C 77% 0.2 mph NW0.3 kmh NW 1.1 mph1.8 kmh 29.89 in1012.2 mb 0.00 in0.0 mm 0.00 in0.0 mm 0.00 in0.0 mm
06:45 PM 33.1°F0.6°C 26.6°F-3.0°C 77% 0.4 mph NW0.6 kmh NW 1.1 mph1.8 kmh 29.89 in1012.2 mb 0.00 in0.0 mm 0.00 in0.0 mm 0.00 in0.0 mm
06:50 PM 32.9°F0.5°C 26.6°F-3.0°C 77% 0.2 mph NNW0.3 kmh NNW 0.9 mph1.4 kmh 29.89 in1012.2 mb 0.00 in0.0 mm 0.00 in0.0 mm 0.00 in0.0 mm
06:55 PM 33.3°F0.7°C 26.6°F-3.0°C 78% Calm Calm -- 29.89 in1012.2 mb 0.00 in0.0 mm 0.00 in0.0 mm 0.00 in0.0 mm
07:00 PM 33.8°F1.0°C 28.4°F-2.0°C 78% Calm Calm -- 29.89 in1012.2 mb 0.00 in0.0 mm 0.00 in0.0 mm 0.00 in0.0 mm
07:05 PM 34.2°F1.2°C 28.4°F-2.0°C 78% 0.1 mph SW0.2 kmh SW 1.3 mph2.1 kmh 29.89 in1012.2 mb 0.00 in0.0 mm 0.00 in0.0 mm 0.00 in0.0 mm
07:10 PM 34.9°F1.6°C 30.2°F-1.0°C 79% 0.4 mph S0.6 kmh S 2.5 mph4.0 kmh 29.89 in1012.2 mb 0.00 in0.0 mm 0.00 in0.0 mm 0.00 in0.0 mm
07:15 PM 34.9°F1.6°C 30.2°F-1.0°C 79% 0.3 mph S0.5 kmh S 2.5 mph4.0 kmh 29.89 in1012.2 mb 0.00 in0.0 mm 0.00 in0.0 mm 0.00 in0.0 mm
07:20 PM 34.9°F1.6°C 30.2°F-1.0°C 79% Calm Calm -- 29.89 in1012.2 mb 0.00 in0.0 mm 0.00 in0.0 mm 0.00 in0.0 mm
07:25 PM 35.4°F1.9°C 30.2°F-1.0°C 79% 0.2 mph SSE0.3 kmh SSE 0.9 mph1.4 kmh 29.89 in1012.2 mb 0.00 in0.0 mm 0.00 in0.0 mm 0.00 in0.0 mm
07:30 PM 35.4°F1.9°C 30.2°F-1.0°C 79% 0.4 mph SE0.6 kmh SE 1.3 mph2.1 kmh 29.89 in1012.2 mb 0.00 in0.0 mm 0.00 in0.0 mm 0.00 in0.0 mm
07:35 PM 35.4°F1.9°C 30.2°F-1.0°C 79% 0.3 mph E0.5 kmh E 1.3 mph2.1 kmh 29.89 in1012.2 mb 0.00 in0.0 mm 0.00 in0.0 mm 0.00 in0.0 mm
07:40 PM 35.4°F1.9°C 30.2°F-1.0°C 79% 0.1 mph ENE0.2 kmh ENE 1.1 mph1.8 kmh 29.89 in1012.2 mb 0.00 in0.0 mm 0.00 in0.0 mm 0.00 in0.0 mm
07:45 PM 35.6°F2.0°C 30.2°F-1.0°C 79% 0.1 mph ENE0.2 kmh ENE 0.9 mph1.4 kmh 29.89 in1012.2 mb 0.00 in0.0 mm 0.00 in0.0 mm 0.00 in0.0 mm
07:50 PM 35.8°F2.1°C 30.2°F-1.0°C 79% Calm Calm -- 29.89 in1012.2 mb 0.00 in0.0 mm 0.00 in0.0 mm 0.00 in0.0 mm
07:55 PM 36.0°F2.2°C 30.2°F-1.0°C 79% 0.4 mph S0.6 kmh S 1.6 mph2.6 kmh 29.89 in1012.2 mb 0.00 in0.0 mm 0.00 in0.0 mm 0.00 in0.0 mm
08:00 PM 36.0°F2.2°C 30.2°F-1.0°C 79% 0.4 mph S0.6 kmh S 1.6 mph2.6 kmh 29.89 in1012.2 mb 0.00 in0.0 mm 0.00 in0.0 mm 0.00 in0.0 mm
08:05 PM 36.0°F2.2°C 30.2°F-1.0°C 79% 0.1 mph S0.2 kmh S 0.9 mph1.4 kmh 29.86 in1011.2 mb 0.00 in0.0 mm 0.00 in0.0 mm 0.00 in0.0 mm
08:10 PM 35.6°F2.0°C 30.2°F-1.0°C 79% 0.2 mph SE0.3 kmh SE 1.1 mph1.8 kmh 29.86 in1011.2 mb 0.00 in0.0 mm 0.00 in0.0 mm 0.00 in0.0 mm
08:15 PM 35.4°F1.9°C 30.2°F-1.0°C 79% 0.1 mph E0.2 kmh E 1.1 mph1.8 kmh 29.86 in1011.2 mb 0.00 in0.0 mm 0.00 in0.0 mm 0.00 in0.0 mm
08:20 PM 35.6°F2.0°C 30.2°F-1.0°C 80% 0.3 mph E0.5 kmh E 1.1 mph1.8 kmh 29.86 in1011.2 mb 0.00 in0.0 mm 0.00 in0.0 mm 0.00 in0.0 mm
08:25 PM 35.6°F2.0°C 30.2°F-1.0°C 79% 0.2 mph E0.3 kmh E 0.9 mph1.4 kmh 29.86 in1011.2 mb 0.00 in0.0 mm 0.00 in0.0 mm 0.00 in0.0 mm
08:30 PM 35.4°F1.9°C 30.2°F-1.0°C 79% 0.1 mph ESE0.2 kmh ESE 1.1 mph1.8 kmh 29.86 in1011.2 mb 0.00 in0.0 mm 0.00 in0.0 mm 0.00 in0.0 mm
08:35 PM 35.8°F2.1°C 30.2°F-1.0°C 80% 0.3 mph SE0.5 kmh SE 1.1 mph1.8 kmh 29.86 in1011.2 mb 0.00 in0.0 mm 0.00 in0.0 mm 0.00 in0.0 mm
08:40 PM 36.0°F2.2°C 30.2°F-1.0°C 80% 0.6 mph S1.0 kmh S 2.0 mph3.2 kmh 29.86 in1011.2 mb 0.00 in0.0 mm 0.00 in0.0 mm 0.00 in0.0 mm
08:45 PM 36.1°F2.3°C 32.0°F0.0°C 80% 0.7 mph S1.1 kmh S 2.0 mph3.2 kmh 29.86 in1011.2 mb 0.00 in0.0 mm 0.00 in0.0 mm 0.00 in0.0 mm
08:50 PM 36.7°F2.6°C 32.0°F0.0°C 80% 0.4 mph S0.6 kmh S 1.3 mph2.1 kmh 29.86 in1011.2 mb 0.00 in0.0 mm 0.00 in0.0 mm 0.00 in0.0 mm
08:55 PM 37.0°F2.8°C 32.0°F0.0°C 80% 0.2 mph S0.3 kmh S 1.1 mph1.8 kmh 29.86 in1011.2 mb 0.00 in0.0 mm 0.00 in0.0 mm 0.00 in0.0 mm
09:00 PM 37.0°F2.8°C 32.0°F0.0°C 80% Calm Calm -- 29.86 in1011.2 mb 0.00 in0.0 mm 0.00 in0.0 mm 0.00 in0.0 mm
09:05 PM 37.4°F3.0°C 32.0°F0.0°C 80% Calm Calm -- 29.86 in1011.2 mb 0.00 in0.0 mm 0.00 in0.0 mm 0.00 in0.0 mm
09:10 PM 37.2°F2.9°C 32.0°F0.0°C 80% Calm Calm -- 29.86 in1011.2 mb 0.00 in0.0 mm 0.00 in0.0 mm 0.00 in0.0 mm
09:15 PM 37.6°F3.1°C 32.0°F0.0°C 80% 0.2 mph S0.3 kmh S 0.9 mph1.4 kmh 29.86 in1011.2 mb 0.00 in0.0 mm 0.00 in0.0 mm 0.00 in0.0 mm
09:20 PM 37.6°F3.1°C 32.0°F0.0°C 80% 0.4 mph S0.6 kmh S 1.1 mph1.8 kmh 29.86 in1011.2 mb 0.00 in0.0 mm 0.00 in0.0 mm 0.00 in0.0 mm
09:25 PM 37.6°F3.1°C 32.0°F0.0°C 80% 0.3 mph S0.5 kmh S 1.1 mph1.8 kmh 29.86 in1011.2 mb 0.00 in0.0 mm 0.00 in0.0 mm 0.00 in0.0 mm
09:30 PM 37.8°F3.2°C 33.8°F1.0°C 80% 0.2 mph SSW0.3 kmh SSW 0.9 mph1.4 kmh 29.86 in1011.2 mb 0.00 in0.0 mm 0.00 in0.0 mm 0.00 in0.0 mm
09:35 PM 37.9°F3.3°C 33.8°F1.0°C 80% 0.2 mph SSW0.3 kmh SSW 1.1 mph1.8 kmh 29.86 in1011.2 mb 0.00 in0.0 mm 0.00 in0.0 mm 0.00 in0.0 mm
09:40 PM 37.9°F3.3°C 33.8°F1.0°C 80% 0.5 mph ESE0.8 kmh ESE 1.1 mph1.8 kmh 29.86 in1011.2 mb 0.00 in0.0 mm 0.00 in0.0 mm 0.00 in0.0 mm
09:45 PM 38.1°F3.4°C 33.8°F1.0°C 80% 0.8 mph ENE1.3 kmh ENE 1.6 mph2.6 kmh 29.86 in1011.2 mb 0.00 in0.0 mm 0.00 in0.0 mm 0.00 in0.0 mm
09:50 PM 37.9°F3.3°C 33.8°F1.0°C 80% 0.5 mph NE0.8 kmh NE 1.6 mph2.6 kmh 29.86 in1011.2 mb 0.00 in0.0 mm 0.00 in0.0 mm 0.00 in0.0 mm
09:55 PM 37.8°F3.2°C 33.8°F1.0°C 80% 0.1 mph NE0.2 kmh NE 1.6 mph2.6 kmh 29.86 in1011.2 mb 0.00 in0.0 mm 0.00 in0.0 mm 0.00 in0.0 mm
10:00 PM 37.8°F3.2°C 33.8°F1.0°C 80% 0.3 mph SSW0.5 kmh SSW 2.2 mph3.5 kmh 29.86 in1011.2 mb 0.00 in0.0 mm 0.00 in0.0 mm 0.00 in0.0 mm
10:05 PM 37.8°F3.2°C 33.8°F1.0°C 80% 0.6 mph SSW1.0 kmh SSW 2.2 mph3.5 kmh 29.86 in1011.2 mb 0.00 in0.0 mm 0.00 in0.0 mm 0.00 in0.0 mm
10:10 PM 37.6°F3.1°C 32.0°F0.0°C 80% 0.4 mph SW0.6 kmh SW 1.3 mph2.1 kmh 29.86 in1011.2 mb 0.00 in0.0 mm 0.00 in0.0 mm 0.00 in0.0 mm
10:15 PM 37.2°F2.9°C 32.0°F0.0°C 80% 0.1 mph WSW0.2 kmh WSW 1.1 mph1.8 kmh 29.86 in1011.2 mb 0.00 in0.0 mm 0.00 in0.0 mm 0.00 in0.0 mm
10:20 PM 37.4°F3.0°C 32.0°F0.0°C 80% 1.2 mph WSW1.9 kmh WSW 3.6 mph5.8 kmh 29.86 in1011.2 mb 0.00 in0.0 mm 0.00 in0.0 mm 0.00 in0.0 mm
10:25 PM 37.4°F3.0°C 32.0°F0.0°C 81% 2.1 mph WSW3.4 kmh WSW 3.6 mph5.8 kmh 29.86 in1011.2 mb 0.00 in0.0 mm 0.00 in0.0 mm 0.00 in0.0 mm
10:30 PM 37.2°F2.9°C 32.0°F0.0°C 81% 1.6 mph SW2.6 kmh SW 2.5 mph4.0 kmh 29.86 in1011.2 mb 0.00 in0.0 mm 0.00 in0.0 mm 0.00 in0.0 mm
10:35 PM 37.0°F2.8°C 32.0°F0.0°C 81% 1.0 mph SW1.6 kmh SW 2.2 mph3.5 kmh 29.83 in1010.2 mb 0.00 in0.0 mm 0.00 in0.0 mm 0.00 in0.0 mm
10:40 PM 37.2°F2.9°C 32.0°F0.0°C 81% 0.7 mph SW1.1 kmh SW 1.6 mph2.6 kmh 29.83 in1010.2 mb 0.00 in0.0 mm 0.00 in0.0 mm 0.00 in0.0 mm
10:45 PM 37.6°F3.1°C 32.0°F0.0°C 81% 1.1 mph SW1.8 kmh SW 3.8 mph6.1 kmh 29.83 in1010.2 mb 0.00 in0.0 mm 0.00 in0.0 mm 0.00 in0.0 mm
10:50 PM 37.6°F3.1°C 33.8°F1.0°C 82% 1.3 mph SW2.1 kmh SW 3.8 mph6.1 kmh 29.83 in1010.2 mb 0.00 in0.0 mm 0.00 in0.0 mm 0.00 in0.0 mm
10:55 PM 37.9°F3.3°C 33.8°F1.0°C 82% 1.5 mph SSW2.4 kmh SSW 2.9 mph4.7 kmh 29.83 in1010.2 mb 0.00 in0.0 mm 0.00 in0.0 mm 0.00 in0.0 mm
11:00 PM 37.9°F3.3°C 33.8°F1.0°C 82% 1.6 mph SSW2.6 kmh SSW 2.9 mph4.7 kmh 29.83 in1010.2 mb 0.00 in0.0 mm 0.00 in0.0 mm 0.00 in0.0 mm
11:05 PM 37.6°F3.1°C 33.8°F1.0°C 82% 0.9 mph SSW1.4 kmh SSW 2.5 mph4.0 kmh 29.83 in1010.2 mb 0.00 in0.0 mm 0.00 in0.0 mm 0.00 in0.0 mm
11:10 PM 37.8°F3.2°C 33.8°F1.0°C 82% 0.6 mph SW1.0 kmh SW 1.6 mph2.6 kmh 29.83 in1010.2 mb 0.00 in0.0 mm 0.00 in0.0 mm 0.00 in0.0 mm
11:15 PM 37.8°F3.2°C 33.8°F1.0°C 82% 0.9 mph SW1.4 kmh SW 2.5 mph4.0 kmh 29.83 in1010.2 mb 0.00 in0.0 mm 0.00 in0.0 mm 0.00 in0.0 mm
11:20 PM 38.3°F3.5°C 33.8°F1.0°C 82% 1.3 mph SW2.1 kmh SW 3.4 mph5.5 kmh 29.83 in1010.2 mb 0.00 in0.0 mm 0.00 in0.0 mm 0.00 in0.0 mm
11:25 PM 38.7°F3.7°C 33.8°F1.0°C 82% 1.4 mph SW2.3 kmh SW 3.4 mph5.5 kmh 29.83 in1010.2 mb 0.00 in0.0 mm 0.00 in0.0 mm 0.00 in0.0 mm
11:30 PM 38.7°F3.7°C 33.8°F1.0°C 82% 0.5 mph SW0.8 kmh SW 2.2 mph3.5 kmh 29.83 in1010.2 mb 0.00 in0.0 mm 0.00 in0.0 mm 0.00 in0.0 mm
11:35 PM 38.7°F3.7°C 33.8°F1.0°C 82% 0.4 mph SW0.6 kmh SW 1.3 mph2.1 kmh 29.83 in1010.2 mb 0.00 in0.0 mm 0.00 in0.0 mm 0.00 in0.0 mm
11:40 PM 38.8°F3.8°C 33.8°F1.0°C 82% 0.6 mph SSW1.0 kmh SSW 1.3 mph2.1 kmh 29.83 in1010.2 mb 0.00 in0.0 mm 0.00 in0.0 mm 0.00 in0.0 mm
11:45 PM 38.7°F3.7°C 33.8°F1.0°C 82% 0.6 mph SW1.0 kmh SW 3.1 mph5.0 kmh 29.83 in1010.2 mb 0.00 in0.0 mm 0.00 in0.0 mm 0.00 in0.0 mm
11:50 PM 38.3°F3.5°C 33.8°F1.0°C 82% 1.0 mph SW1.6 kmh SW 3.1 mph5.0 kmh 29.83 in1010.2 mb 0.00 in0.0 mm 0.00 in0.0 mm 0.00 in0.0 mm
11:55 PM 38.1°F3.4°C 33.8°F1.0°C 82% 0.8 mph SW1.3 kmh SW 3.1 mph5.0 kmh 29.83 in1010.2 mb 0.00 in0.0 mm 0.00 in0.0 mm 0.00 in0.0 mm